sensor_id;sensor_type;location;lat;lon;timestamp;pressure;altitude;pressure_sealevel;temperature;humidity
36454;BME280;22478;51.740;-1.314;2022-08-03T00:01:06;100055.14;;;14.90;100.00
36454;BME280;22478;51.740;-1.314;2022-08-03T00:03:33;100048.47;;;15.69;100.00
36454;BME280;22478;51.740;-1.314;2022-08-03T00:06:01;100056.51;;;14.12;100.00
36454;BME280;22478;51.740;-1.314;2022-08-03T00:08:29;100049.65;;;15.74;100.00
36454;BME280;22478;51.740;-1.314;2022-08-03T00:10:56;100049.69;;;15.52;100.00
36454;BME280;22478;51.740;-1.314;2022-08-03T00:13:24;100044.99;;;16.19;100.00
36454;BME280;22478;51.740;-1.314;2022-08-03T00:15:51;100045.80;;;16.21;100.00
36454;BME280;22478;51.740;-1.314;2022-08-03T00:18:19;100043.62;;;15.64;100.00
36454;BME280;22478;51.740;-1.314;2022-08-03T00:20:46;100039.14;;;15.79;100.00
36454;BME280;22478;51.740;-1.314;2022-08-03T00:23:14;100041.58;;;16.22;100.00
36454;BME280;22478;51.740;-1.314;2022-08-03T00:25:41;100035.28;;;16.79;100.00
36454;BME280;22478;51.740;-1.314;2022-08-03T00:28:09;100044.13;;;16.19;100.00
36454;BME280;22478;51.740;-1.314;2022-08-03T00:30:37;100044.43;;;15.16;100.00
36454;BME280;22478;51.740;-1.314;2022-08-03T00:33:04;100044.65;;;14.59;100.00
36454;BME280;22478;51.740;-1.314;2022-08-03T00:35:51;100040.06;;;14.07;100.00
36454;BME280;22478;51.740;-1.314;2022-08-03T00:38:19;100031.91;;;13.31;100.00
36454;BME280;22478;51.740;-1.314;2022-08-03T00:40:46;100034.05;;;15.68;100.00
36454;BME280;22478;51.740;-1.314;2022-08-03T00:43:14;100030.53;;;15.45;100.00
36454;BME280;22478;51.740;-1.314;2022-08-03T00:45:41;100028.60;;;15.78;100.00
36454;BME280;22478;51.740;-1.314;2022-08-03T00:48:11;100025.48;;;15.48;100.00
36454;BME280;22478;51.740;-1.314;2022-08-03T00:50:40;100032.58;;;15.35;100.00
36454;BME280;22478;51.740;-1.314;2022-08-03T00:53:10;100026.26;;;14.95;100.00
36454;BME280;22478;51.740;-1.314;2022-08-03T00:55:38;100025.61;;;15.47;100.00
36454;BME280;22478;51.740;-1.314;2022-08-03T00:58:07;100018.76;;;16.25;100.00
36454;BME280;22478;51.740;-1.314;2022-08-03T01:00:37;100021.23;;;15.08;100.00
36454;BME280;22478;51.740;-1.314;2022-08-03T01:03:05;100014.33;;;15.79;100.00
36454;BME280;22478;51.740;-1.314;2022-08-03T01:05:39;100018.90;;;15.77;100.00
36454;BME280;22478;51.740;-1.314;2022-08-03T01:08:18;100018.18;;;14.66;100.00
36454;BME280;22478;51.740;-1.314;2022-08-03T01:10:59;100015.47;;;15.73;100.00
36454;BME280;22478;51.740;-1.314;2022-08-03T01:13:33;100014.83;;;15.91;100.00
36454;BME280;22478;51.740;-1.314;2022-08-03T01:16:09;100011.69;;;15.38;100.00
36454;BME280;22478;51.740;-1.314;2022-08-03T01:18:42;100008.33;;;15.38;100.00
36454;BME280;22478;51.740;-1.314;2022-08-03T01:21:15;100004.62;;;15.84;100.00
36454;BME280;22478;51.740;-1.314;2022-08-03T01:24:03;100005.53;;;16.53;100.00
36454;BME280;22478;51.740;-1.314;2022-08-03T01:26:46;100009.23;;;15.12;100.00
36454;BME280;22478;51.740;-1.314;2022-08-03T01:29:34;100007.94;;;14.44;100.00
36454;BME280;22478;51.740;-1.314;2022-08-03T01:32:08;99997.18;;;15.95;100.00
36454;BME280;22478;51.740;-1.314;2022-08-03T01:34:42;99994.27;;;16.07;100.00
36454;BME280;22478;51.740;-1.314;2022-08-03T01:37:12;99989.52;;;16.12;100.00
36454;BME280;22478;51.740;-1.314;2022-08-03T01:39:43;99984.48;;;16.28;100.00
36454;BME280;22478;51.740;-1.314;2022-08-03T01:42:13;99990.24;;;15.80;100.00
36454;BME280;22478;51.740;-1.314;2022-08-03T01:44:41;99992.85;;;15.62;100.00
36454;BME280;22478;51.740;-1.314;2022-08-03T01:47:11;99988.63;;;17.48;100.00
36454;BME280;22478;51.740;-1.314;2022-08-03T01:49:42;99988.79;;;17.16;100.00
36454;BME280;22478;51.740;-1.314;2022-08-03T01:52:10;99991.47;;;17.22;100.00
36454;BME280;22478;51.740;-1.314;2022-08-03T01:54:43;99991.09;;;15.17;100.00
36454;BME280;22478;51.740;-1.314;2022-08-03T01:57:12;99985.88;;;17.12;100.00
36454;BME280;22478;51.740;-1.314;2022-08-03T01:59:41;99990.10;;;16.16;100.00
36454;BME280;22478;51.740;-1.314;2022-08-03T02:02:12;99996.06;;;15.76;100.00
36454;BME280;22478;51.740;-1.314;2022-08-03T02:04:42;99998.01;;;15.79;100.00
36454;BME280;22478;51.740;-1.314;2022-08-03T02:07:09;100001.35;;;14.03;100.00
36454;BME280;22478;51.740;-1.314;2022-08-03T02:09:39;99989.66;;;16.87;100.00
36454;BME280;22478;51.740;-1.314;2022-08-03T02:12:08;99998.04;;;14.77;100.00
36454;BME280;22478;51.740;-1.314;2022-08-03T02:14:37;99996.35;;;15.18;100.00
36454;BME280;22478;51.740;-1.314;2022-08-03T02:17:06;99987.56;;;15.15;100.00
36454;BME280;22478;51.740;-1.314;2022-08-03T02:19:34;99985.92;;;15.40;100.00
36454;BME280;22478;51.740;-1.314;2022-08-03T02:22:04;99982.38;;;15.21;100.00
36454;BME280;22478;51.740;-1.314;2022-08-03T02:24:35;99977.56;;;16.03;100.00
36454;BME280;22478;51.740;-1.314;2022-08-03T02:27:04;99979.62;;;15.59;100.00
36454;BME280;22478;51.740;-1.314;2022-08-03T02:29:35;99977.14;;;15.42;100.00
36454;BME280;22478;51.740;-1.314;2022-08-03T02:32:06;99975.55;;;16.79;100.00
36454;BME280;22478;51.740;-1.314;2022-08-03T02:34:34;99978.39;;;16.54;100.00
36454;BME280;22478;51.740;-1.314;2022-08-03T02:37:02;99979.37;;;17.01;100.00
36454;BME280;22478;51.740;-1.314;2022-08-03T02:39:32;99979.97;;;17.36;100.00
36454;BME280;22478;51.740;-1.314;2022-08-03T02:42:00;99983.03;;;14.00;100.00
36454;BME280;22478;51.740;-1.314;2022-08-03T02:44:29;99977.97;;;14.80;100.00
36454;BME280;22478;51.740;-1.314;2022-08-03T02:47:00;99974.87;;;16.98;100.00
36454;BME280;22478;51.740;-1.314;2022-08-03T02:49:30;99976.30;;;16.80;100.00
36454;BME280;22478;51.740;-1.314;2022-08-03T02:52:00;99978.13;;;16.55;100.00
36454;BME280;22478;51.740;-1.314;2022-08-03T02:54:29;99978.49;;;15.91;100.00
36454;BME280;22478;51.740;-1.314;2022-08-03T02:56:59;99977.06;;;16.91;100.00
36454;BME280;22478;51.740;-1.314;2022-08-03T02:59:27;99979.89;;;16.31;100.00
36454;BME280;22478;51.740;-1.314;2022-08-03T03:01:56;99977.67;;;17.45;100.00
36454;BME280;22478;51.740;-1.314;2022-08-03T03:04:27;99982.39;;;16.78;100.00
36454;BME280;22478;51.740;-1.314;2022-08-03T03:06:56;99978.37;;;17.07;100.00
36454;BME280;22478;51.740;-1.314;2022-08-03T03:09:24;99978.28;;;17.20;100.00
36454;BME280;22478;51.740;-1.314;2022-08-03T03:11:52;99980.98;;;17.12;100.00
36454;BME280;22478;51.740;-1.314;2022-08-03T03:14:20;99985.20;;;15.52;100.00
36454;BME280;22478;51.740;-1.314;2022-08-03T03:16:48;99984.65;;;14.08;100.00
36454;BME280;22478;51.740;-1.314;2022-08-03T03:19:17;99974.15;;;15.76;100.00
36454;BME280;22478;51.740;-1.314;2022-08-03T03:21:46;99979.99;;;15.17;100.00
36454;BME280;22478;51.740;-1.314;2022-08-03T03:24:15;99975.47;;;15.74;100.00
36454;BME280;22478;51.740;-1.314;2022-08-03T03:26:43;99972.52;;;17.58;100.00
36454;BME280;22478;51.740;-1.314;2022-08-03T03:29:11;99978.48;;;15.39;100.00
36454;BME280;22478;51.740;-1.314;2022-08-03T03:31:39;99974.17;;;16.90;100.00
36454;BME280;22478;51.740;-1.314;2022-08-03T03:34:06;99972.48;;;16.52;100.00
36454;BME280;22478;51.740;-1.314;2022-08-03T03:36:34;99976.41;;;15.04;100.00
36454;BME280;22478;51.740;-1.314;2022-08-03T03:39:02;99972.71;;;15.68;100.00
36454;BME280;22478;51.740;-1.314;2022-08-03T03:41:29;99970.50;;;16.66;100.00
36454;BME280;22478;51.740;-1.314;2022-08-03T03:43:57;99969.73;;;16.81;100.00
36454;BME280;22478;51.740;-1.314;2022-08-03T03:46:25;99973.74;;;16.61;100.00
36454;BME280;22478;51.740;-1.314;2022-08-03T03:48:53;99972.02;;;17.02;100.00
36454;BME280;22478;51.740;-1.314;2022-08-03T03:51:20;99975.05;;;13.95;100.00
36454;BME280;22478;51.740;-1.314;2022-08-03T03:53:56;99968.30;;;15.59;100.00
36454;BME280;22478;51.740;-1.314;2022-08-03T03:56:23;99963.60;;;16.25;100.00
36454;BME280;22478;51.740;-1.314;2022-08-03T03:58:51;99961.47;;;16.87;100.00
36454;BME280;22478;51.740;-1.314;2022-08-03T04:01:19;99958.00;;;16.86;100.00
36454;BME280;22478;51.740;-1.314;2022-08-03T04:03:46;99962.09;;;16.51;100.00
36454;BME280;22478;51.740;-1.314;2022-08-03T04:06:14;99972.00;;;14.49;100.00
36454;BME280;22478;51.740;-1.314;2022-08-03T04:08:42;99965.05;;;15.93;100.00
36454;BME280;22478;51.740;-1.314;2022-08-03T04:11:13;99971.74;;;14.43;100.00
36454;BME280;22478;51.740;-1.314;2022-08-03T04:13:46;99962.82;;;15.57;100.00
36454;BME280;22478;51.740;-1.314;2022-08-03T04:16:17;99972.91;;;15.65;100.00
36454;BME280;22478;51.740;-1.314;2022-08-03T04:18:48;99978.12;;;13.60;100.00
36454;BME280;22478;51.740;-1.314;2022-08-03T04:21:18;99978.83;;;13.86;100.00
36454;BME280;22478;51.740;-1.314;2022-08-03T04:23:49;99982.05;;;13.87;100.00
36454;BME280;22478;51.740;-1.314;2022-08-03T04:26:20;99980.98;;;15.27;100.00
36454;BME280;22478;51.740;-1.314;2022-08-03T04:28:48;99977.61;;;15.85;100.00
36454;BME280;22478;51.740;-1.314;2022-08-03T04:31:20;99984.72;;;12.09;100.00
36454;BME280;22478;51.740;-1.314;2022-08-03T04:33:50;99986.77;;;14.15;100.00
36454;BME280;22478;51.740;-1.314;2022-08-03T04:36:21;99982.39;;;14.06;100.00
36454;BME280;22478;51.740;-1.314;2022-08-03T04:38:56;99981.42;;;15.18;100.00
36454;BME280;22478;51.740;-1.314;2022-08-03T04:41:27;99979.60;;;15.37;100.00
36454;BME280;22478;51.740;-1.314;2022-08-03T04:43:56;99976.53;;;15.94;100.00
36454;BME280;22478;51.740;-1.314;2022-08-03T04:46:27;99977.00;;;14.75;100.00
36454;BME280;22478;51.740;-1.314;2022-08-03T04:48:55;99976.48;;;15.43;100.00
36454;BME280;22478;51.740;-1.314;2022-08-03T04:51:23;99978.78;;;13.85;100.00
36454;BME280;22478;51.740;-1.314;2022-08-03T04:53:50;99981.84;;;15.04;100.00
36454;BME280;22478;51.740;-1.314;2022-08-03T04:56:17;99986.58;;;13.33;100.00
36454;BME280;22478;51.740;-1.314;2022-08-03T04:58:45;99977.87;;;13.55;100.00
36454;BME280;22478;51.740;-1.314;2022-08-03T05:01:12;99974.25;;;12.88;100.00
36454;BME280;22478;51.740;-1.314;2022-08-03T05:03:40;99978.60;;;13.40;100.00
36454;BME280;22478;51.740;-1.314;2022-08-03T05:06:07;99981.56;;;13.88;100.00
36454;BME280;22478;51.740;-1.314;2022-08-03T05:08:34;99982.04;;;13.82;100.00
36454;BME280;22478;51.740;-1.314;2022-08-03T05:11:01;99981.69;;;13.49;100.00
36454;BME280;22478;51.740;-1.314;2022-08-03T05:13:29;99984.47;;;13.55;100.00
36454;BME280;22478;51.740;-1.314;2022-08-03T05:15:56;99984.09;;;14.29;100.00
36454;BME280;22478;51.740;-1.314;2022-08-03T05:18:24;99986.15;;;15.26;100.00
36454;BME280;22478;51.740;-1.314;2022-08-03T05:20:50;99978.60;;;15.61;100.00
36454;BME280;22478;51.740;-1.314;2022-08-03T05:23:18;99988.95;;;14.11;100.00
36454;BME280;22478;51.740;-1.314;2022-08-03T05:25:46;99986.23;;;14.99;100.00
36454;BME280;22478;51.740;-1.314;2022-08-03T05:28:13;99987.07;;;14.30;100.00
36454;BME280;22478;51.740;-1.314;2022-08-03T05:30:40;99986.82;;;14.14;100.00
36454;BME280;22478;51.740;-1.314;2022-08-03T05:33:08;99988.64;;;14.84;100.00
36454;BME280;22478;51.740;-1.314;2022-08-03T05:35:36;99999.06;;;14.72;100.00
36454;BME280;22478;51.740;-1.314;2022-08-03T05:38:03;100000.73;;;14.30;100.00
36454;BME280;22478;51.740;-1.314;2022-08-03T05:40:31;100003.42;;;14.96;100.00
36454;BME280;22478;51.740;-1.314;2022-08-03T05:43:00;100003.07;;;14.82;100.00
36454;BME280;22478;51.740;-1.314;2022-08-03T05:45:27;100010.20;;;13.62;100.00
36454;BME280;22478;51.740;-1.314;2022-08-03T05:47:55;100008.48;;;15.14;100.00
36454;BME280;22478;51.740;-1.314;2022-08-03T05:50:23;100003.52;;;15.92;100.00
36454;BME280;22478;51.740;-1.314;2022-08-03T05:52:54;100001.55;;;16.42;100.00
36454;BME280;22478;51.740;-1.314;2022-08-03T05:55:22;100008.86;;;15.95;100.00
36454;BME280;22478;51.740;-1.314;2022-08-03T05:57:50;100007.37;;;16.91;100.00
36454;BME280;22478;51.740;-1.314;2022-08-03T06:00:18;100011.49;;;17.54;100.00
36454;BME280;22478;51.740;-1.314;2022-08-03T06:02:45;100014.22;;;16.95;100.00
36454;BME280;22478;51.740;-1.314;2022-08-03T06:05:13;100011.28;;;17.17;100.00
36454;BME280;22478;51.740;-1.314;2022-08-03T06:07:40;100013.25;;;17.38;100.00
36454;BME280;22478;51.740;-1.314;2022-08-03T06:10:08;100008.28;;;17.58;100.00
36454;BME280;22478;51.740;-1.314;2022-08-03T06:12:35;100009.10;;;18.06;100.00
36454;BME280;22478;51.740;-1.314;2022-08-03T06:15:04;100015.82;;;17.86;100.00
36454;BME280;22478;51.740;-1.314;2022-08-03T06:17:32;100018.74;;;18.38;100.00
36454;BME280;22478;51.740;-1.314;2022-08-03T06:19:59;100021.37;;;16.93;100.00
36454;BME280;22478;51.740;-1.314;2022-08-03T06:22:27;100020.23;;;17.87;100.00
36454;BME280;22478;51.740;-1.314;2022-08-03T06:24:54;100019.00;;;15.33;100.00
36454;BME280;22478;51.740;-1.314;2022-08-03T06:27:21;100015.73;;;16.80;100.00
36454;BME280;22478;51.740;-1.314;2022-08-03T06:29:48;100017.61;;;17.30;100.00
36454;BME280;22478;51.740;-1.314;2022-08-03T06:32:14;100017.63;;;15.38;100.00
36454;BME280;22478;51.740;-1.314;2022-08-03T06:34:41;100015.51;;;17.27;100.00
36454;BME280;22478;51.740;-1.314;2022-08-03T06:37:09;100009.91;;;17.73;100.00
36454;BME280;22478;51.740;-1.314;2022-08-03T06:39:37;100017.00;;;14.92;100.00
36454;BME280;22478;51.740;-1.314;2022-08-03T06:42:05;100014.88;;;16.17;100.00
36454;BME280;22478;51.740;-1.314;2022-08-03T06:44:32;100011.12;;;17.39;100.00
36454;BME280;22478;51.740;-1.314;2022-08-03T06:47:00;100012.21;;;16.85;100.00
36454;BME280;22478;51.740;-1.314;2022-08-03T06:49:28;100006.79;;;17.75;100.00
36454;BME280;22478;51.740;-1.314;2022-08-03T06:51:56;100008.82;;;17.96;100.00
36454;BME280;22478;51.740;-1.314;2022-08-03T06:54:23;100014.07;;;16.60;100.00
36454;BME280;22478;51.740;-1.314;2022-08-03T06:56:51;100009.99;;;18.75;100.00
36454;BME280;22478;51.740;-1.314;2022-08-03T06:59:19;100007.59;;;18.27;100.00
36454;BME280;22478;51.740;-1.314;2022-08-03T07:01:46;100014.22;;;17.21;100.00
36454;BME280;22478;51.740;-1.314;2022-08-03T07:04:14;100005.25;;;18.13;100.00
36454;BME280;22478;51.740;-1.314;2022-08-03T07:06:42;100013.66;;;16.08;100.00
36454;BME280;22478;51.740;-1.314;2022-08-03T07:09:09;100018.83;;;17.57;100.00
36454;BME280;22478;51.740;-1.314;2022-08-03T07:11:37;100015.88;;;18.45;100.00
36454;BME280;22478;51.740;-1.314;2022-08-03T07:14:05;100018.90;;;17.74;100.00
36454;BME280;22478;51.740;-1.314;2022-08-03T07:16:33;100016.51;;;19.04;100.00
36454;BME280;22478;51.740;-1.314;2022-08-03T07:19:00;100024.21;;;17.40;100.00
36454;BME280;22478;51.740;-1.314;2022-08-03T07:21:28;100021.78;;;18.47;100.00
36454;BME280;22478;51.740;-1.314;2022-08-03T07:23:56;100020.31;;;17.68;100.00
36454;BME280;22478;51.740;-1.314;2022-08-03T07:26:23;100016.85;;;17.84;100.00
36454;BME280;22478;51.740;-1.314;2022-08-03T07:28:51;100011.36;;;19.49;100.00
36454;BME280;22478;51.740;-1.314;2022-08-03T07:31:19;100023.23;;;16.40;100.00
36454;BME280;22478;51.740;-1.314;2022-08-03T07:33:47;100023.10;;;17.48;100.00
36454;BME280;22478;51.740;-1.314;2022-08-03T07:36:14;100020.53;;;18.16;100.00
36454;BME280;22478;51.740;-1.314;2022-08-03T07:38:42;100022.72;;;15.46;100.00
36454;BME280;22478;51.740;-1.314;2022-08-03T07:41:10;100024.56;;;16.90;100.00
36454;BME280;22478;51.740;-1.314;2022-08-03T07:43:37;100021.93;;;16.62;100.00
36454;BME280;22478;51.740;-1.314;2022-08-03T07:46:04;100028.16;;;17.33;100.00
36454;BME280;22478;51.740;-1.314;2022-08-03T07:48:31;100024.20;;;18.46;100.00
36454;BME280;22478;51.740;-1.314;2022-08-03T07:50:58;100031.32;;;17.51;100.00
36454;BME280;22478;51.740;-1.314;2022-08-03T07:53:26;100029.57;;;18.04;100.00
36454;BME280;22478;51.740;-1.314;2022-08-03T07:55:53;100029.15;;;16.38;100.00
36454;BME280;22478;51.740;-1.314;2022-08-03T07:58:21;100030.35;;;17.19;100.00
36454;BME280;22478;51.740;-1.314;2022-08-03T08:00:49;100028.73;;;17.10;100.00
36454;BME280;22478;51.740;-1.314;2022-08-03T08:03:17;100022.41;;;19.27;100.00
36454;BME280;22478;51.740;-1.314;2022-08-03T08:05:44;100023.47;;;18.36;100.00
36454;BME280;22478;51.740;-1.314;2022-08-03T08:08:12;100026.14;;;19.01;100.00
36454;BME280;22478;51.740;-1.314;2022-08-03T08:10:40;100027.56;;;18.07;100.00
36454;BME280;22478;51.740;-1.314;2022-08-03T08:13:07;100024.91;;;19.92;100.00
36454;BME280;22478;51.740;-1.314;2022-08-03T08:15:35;100027.93;;;19.16;100.00
36454;BME280;22478;51.740;-1.314;2022-08-03T08:18:03;100027.95;;;19.66;100.00
36454;BME280;22478;51.740;-1.314;2022-08-03T08:20:33;100028.77;;;19.44;100.00
36454;BME280;22478;51.740;-1.314;2022-08-03T08:23:01;100033.16;;;19.48;100.00
36454;BME280;22478;51.740;-1.314;2022-08-03T08:25:30;100032.67;;;18.03;100.00
36454;BME280;22478;51.740;-1.314;2022-08-03T08:27:58;100032.26;;;19.86;100.00
36454;BME280;22478;51.740;-1.314;2022-08-03T08:30:26;100024.88;;;20.80;100.00
36454;BME280;22478;51.740;-1.314;2022-08-03T08:32:53;100023.48;;;20.04;100.00
36454;BME280;22478;51.740;-1.314;2022-08-03T08:35:21;100026.96;;;18.90;100.00
36454;BME280;22478;51.740;-1.314;2022-08-03T08:37:49;100026.05;;;19.87;100.00
36454;BME280;22478;51.740;-1.314;2022-08-03T08:40:20;100024.89;;;20.21;100.00
36454;BME280;22478;51.740;-1.314;2022-08-03T08:42:48;100032.75;;;16.74;100.00
36454;BME280;22478;51.740;-1.314;2022-08-03T08:45:15;100032.48;;;17.69;100.00
36454;BME280;22478;51.740;-1.314;2022-08-03T08:47:45;100034.53;;;18.61;100.00
36454;BME280;22478;51.740;-1.314;2022-08-03T08:50:14;100035.90;;;17.66;100.00
36454;BME280;22478;51.740;-1.314;2022-08-03T08:52:45;100028.37;;;18.07;100.00
36454;BME280;22478;51.740;-1.314;2022-08-03T08:55:19;100032.82;;;19.50;100.00
36454;BME280;22478;51.740;-1.314;2022-08-03T08:57:50;100034.85;;;19.30;100.00
36454;BME280;22478;51.740;-1.314;2022-08-03T09:00:18;100034.66;;;18.94;100.00
36454;BME280;22478;51.740;-1.314;2022-08-03T09:02:46;100033.51;;;18.15;100.00
36454;BME280;22478;51.740;-1.314;2022-08-03T09:05:16;100039.78;;;20.16;100.00
36454;BME280;22478;51.740;-1.314;2022-08-03T09:07:45;100041.77;;;17.25;100.00
36454;BME280;22478;51.740;-1.314;2022-08-03T09:10:15;100041.21;;;19.45;100.00
36454;BME280;22478;51.740;-1.314;2022-08-03T09:12:44;100035.68;;;19.10;100.00
36454;BME280;22478;51.740;-1.314;2022-08-03T09:15:22;100042.27;;;19.56;100.00
36454;BME280;22478;51.740;-1.314;2022-08-03T09:17:51;100041.88;;;18.51;100.00
36454;BME280;22478;51.740;-1.314;2022-08-03T09:20:22;100041.31;;;17.88;100.00
36454;BME280;22478;51.740;-1.314;2022-08-03T09:22:53;100034.65;;;19.68;100.00
36454;BME280;22478;51.740;-1.314;2022-08-03T09:25:28;100036.17;;;19.28;100.00
36454;BME280;22478;51.740;-1.314;2022-08-03T09:28:04;100035.96;;;21.04;100.00
36454;BME280;22478;51.740;-1.314;2022-08-03T09:30:32;100037.74;;;18.23;100.00
36454;BME280;22478;51.740;-1.314;2022-08-03T09:32:59;100036.29;;;19.82;100.00
36454;BME280;22478;51.740;-1.314;2022-08-03T09:35:27;100029.96;;;21.66;100.00
36454;BME280;22478;51.740;-1.314;2022-08-03T09:38:09;100039.33;;;19.80;100.00
36454;BME280;22478;51.740;-1.314;2022-08-03T09:40:36;100035.67;;;19.65;100.00
36454;BME280;22478;51.740;-1.314;2022-08-03T09:43:03;100033.15;;;19.76;100.00
36454;BME280;22478;51.740;-1.314;2022-08-03T09:45:31;100023.86;;;21.31;100.00
36454;BME280;22478;51.740;-1.314;2022-08-03T09:48:19;100026.47;;;20.73;100.00
36454;BME280;22478;51.740;-1.314;2022-08-03T09:50:48;100029.75;;;19.61;100.00
36454;BME280;22478;51.740;-1.314;2022-08-03T09:53:17;100028.49;;;19.68;100.00
36454;BME280;22478;51.740;-1.314;2022-08-03T09:55:52;100027.16;;;19.93;100.00
36454;BME280;22478;51.740;-1.314;2022-08-03T09:58:20;100030.93;;;19.91;100.00
36454;BME280;22478;51.740;-1.314;2022-08-03T10:00:57;100027.85;;;20.30;100.00
36454;BME280;22478;51.740;-1.314;2022-08-03T10:03:26;100028.06;;;18.83;100.00
36454;BME280;22478;51.740;-1.314;2022-08-03T10:05:55;100020.94;;;19.74;100.00
36454;BME280;22478;51.740;-1.314;2022-08-03T10:08:23;100010.15;;;22.34;99.81
36454;BME280;22478;51.740;-1.314;2022-08-03T10:10:51;100014.33;;;19.83;100.00
36454;BME280;22478;51.740;-1.314;2022-08-03T10:13:20;100016.11;;;20.31;100.00
36454;BME280;22478;51.740;-1.314;2022-08-03T10:15:48;100012.35;;;21.89;97.97
36454;BME280;22478;51.740;-1.314;2022-08-03T10:18:15;100013.83;;;22.10;97.57
36454;BME280;22478;51.740;-1.314;2022-08-03T10:20:47;100025.23;;;19.72;100.00
36454;BME280;22478;51.740;-1.314;2022-08-03T10:23:16;100020.91;;;19.44;100.00
36454;BME280;22478;51.740;-1.314;2022-08-03T10:25:48;100018.56;;;20.69;100.00
36454;BME280;22478;51.740;-1.314;2022-08-03T10:28:18;100014.27;;;20.81;100.00
36454;BME280;22478;51.740;-1.314;2022-08-03T10:30:49;100013.80;;;21.86;100.00
36454;BME280;22478;51.740;-1.314;2022-08-03T10:33:19;100012.61;;;22.44;98.86
36454;BME280;22478;51.740;-1.314;2022-08-03T10:35:53;100013.72;;;22.23;98.80
36454;BME280;22478;51.740;-1.314;2022-08-03T10:38:28;100009.70;;;21.69;99.72
36454;BME280;22478;51.740;-1.314;2022-08-03T10:41:00;100008.73;;;21.65;95.73
36454;BME280;22478;51.740;-1.314;2022-08-03T10:43:32;100009.23;;;21.84;94.84
36454;BME280;22478;51.740;-1.314;2022-08-03T10:46:04;100009.07;;;21.23;99.54
36454;BME280;22478;51.740;-1.314;2022-08-03T10:48:34;100010.95;;;19.38;100.00
36454;BME280;22478;51.740;-1.314;2022-08-03T10:51:03;100013.23;;;19.70;100.00
36454;BME280;22478;51.740;-1.314;2022-08-03T10:53:34;100001.16;;;21.25;99.17
36454;BME280;22478;51.740;-1.314;2022-08-03T10:56:03;99999.05;;;20.69;100.00
36454;BME280;22478;51.740;-1.314;2022-08-03T10:58:47;99999.02;;;21.00;100.00
36454;BME280;22478;51.740;-1.314;2022-08-03T11:01:16;100003.26;;;20.05;100.00
36454;BME280;22478;51.740;-1.314;2022-08-03T11:04:14;100000.02;;;21.24;100.00
36454;BME280;22478;51.740;-1.314;2022-08-03T11:06:43;100005.20;;;20.87;100.00
36454;BME280;22478;51.740;-1.314;2022-08-03T11:09:15;100011.23;;;19.28;100.00
36454;BME280;22478;51.740;-1.314;2022-08-03T11:11:45;100009.86;;;20.65;100.00
36454;BME280;22478;51.740;-1.314;2022-08-03T11:14:15;100011.30;;;20.82;100.00
36454;BME280;22478;51.740;-1.314;2022-08-03T11:16:45;100018.17;;;18.29;100.00
36454;BME280;22478;51.740;-1.314;2022-08-03T11:19:13;100013.12;;;19.31;100.00
36454;BME280;22478;51.740;-1.314;2022-08-03T11:21:58;100001.69;;;21.03;100.00
36454;BME280;22478;51.740;-1.314;2022-08-03T11:26:08;100004.32;;;20.48;100.00
36454;BME280;22478;51.740;-1.314;2022-08-03T11:28:36;100013.61;;;18.95;100.00
36454;BME280;22478;51.740;-1.314;2022-08-03T11:32:08;100015.05;;;17.98;100.00
36454;BME280;22478;51.740;-1.314;2022-08-03T11:35:06;100019.24;;;19.25;100.00
36454;BME280;22478;51.740;-1.314;2022-08-03T11:37:33;100020.60;;;19.75;100.00
36454;BME280;22478;51.740;-1.314;2022-08-03T11:40:01;100012.58;;;21.61;100.00
36454;BME280;22478;51.740;-1.314;2022-08-03T11:42:39;100015.66;;;20.27;100.00
36454;BME280;22478;51.740;-1.314;2022-08-03T11:45:07;100011.30;;;21.22;100.00
36454;BME280;22478;51.740;-1.314;2022-08-03T11:47:37;100019.05;;;21.42;100.00
36454;BME280;22478;51.740;-1.314;2022-08-03T11:50:07;100017.24;;;21.12;100.00
36454;BME280;22478;51.740;-1.314;2022-08-03T11:52:38;100020.33;;;21.61;100.00
36454;BME280;22478;51.740;-1.314;2022-08-03T11:55:11;100017.06;;;20.57;100.00
36454;BME280;22478;51.740;-1.314;2022-08-03T11:57:40;100017.86;;;22.05;99.49
36454;BME280;22478;51.740;-1.314;2022-08-03T12:00:26;100018.97;;;22.65;94.92
36454;BME280;22478;51.740;-1.314;2022-08-03T12:02:57;100022.17;;;22.49;97.13
36454;BME280;22478;51.740;-1.314;2022-08-03T12:05:34;100026.09;;;19.05;100.00
36454;BME280;22478;51.740;-1.314;2022-08-03T12:08:02;100030.49;;;19.49;100.00
36454;BME280;22478;51.740;-1.314;2022-08-03T12:10:30;100036.89;;;22.29;97.02
36454;BME280;22478;51.740;-1.314;2022-08-03T12:12:58;100049.06;;;18.44;100.00
36454;BME280;22478;51.740;-1.314;2022-08-03T12:15:28;100046.46;;;17.14;100.00
36454;BME280;22478;51.740;-1.314;2022-08-03T12:17:56;100053.95;;;16.81;100.00
36454;BME280;22478;51.740;-1.314;2022-08-03T12:20:26;100052.33;;;18.14;100.00
36454;BME280;22478;51.740;-1.314;2022-08-03T12:23:00;100053.70;;;16.89;100.00
36454;BME280;22478;51.740;-1.314;2022-08-03T12:25:28;100051.84;;;18.47;100.00
36454;BME280;22478;51.740;-1.314;2022-08-03T12:28:07;100050.88;;;18.69;100.00
36454;BME280;22478;51.740;-1.314;2022-08-03T12:30:36;100054.18;;;19.98;100.00
36454;BME280;22478;51.740;-1.314;2022-08-03T12:33:13;100061.88;;;16.97;100.00
36454;BME280;22478;51.740;-1.314;2022-08-03T12:35:40;100058.25;;;18.80;100.00
36454;BME280;22478;51.740;-1.314;2022-08-03T12:38:09;100056.85;;;17.88;100.00
36454;BME280;22478;51.740;-1.314;2022-08-03T12:40:36;100054.90;;;16.35;100.00
36454;BME280;22478;51.740;-1.314;2022-08-03T12:43:10;100051.79;;;17.43;100.00
36454;BME280;22478;51.740;-1.314;2022-08-03T12:45:38;100060.90;;;16.66;100.00
36454;BME280;22478;51.740;-1.314;2022-08-03T12:48:08;100055.78;;;17.47;100.00